Terminal Aerodrome Forecast
Issued by NWS

Home | Current Version | Previous Version | Text Only | Print | Product List | Glossary On
Versions: 1 2 3 4 5 6 7 8 9 10 11 12 13 14 15 16 17 18
000
FTUS44 KLZK 012300
TAFLIT
TAF
KLIT 012329Z 0200/0224 13003KT P6SM VCSH BKN050
     FM020500 VRB03KT P6SM SCT050 BKN250
      TEMPO 0209/0212 4SM BR
     FM021500 04007KT P6SM SCT050=

USA.gov is the U.S. government's official web portal to all federal, state and local government web resources and services.